createdAt,value
2018-10-18T00:00:32.797Z,15.90
2018-10-18T00:03:01.120Z,16.00
2018-10-18T00:05:29.430Z,16.00
2018-10-18T00:07:57.760Z,15.90
2018-10-18T00:10:26.142Z,15.90
2018-10-18T00:12:54.431Z,16.00
2018-10-18T00:15:22.690Z,15.90
2018-10-18T00:17:50.982Z,16.00
2018-10-18T00:20:19.262Z,15.90
2018-10-18T00:22:47.590Z,16.00
2018-10-18T00:25:16.317Z,15.90
2018-10-18T00:27:44.618Z,15.90
2018-10-18T00:30:14.404Z,15.70
2018-10-18T00:32:43.398Z,15.80
2018-10-18T00:35:11.877Z,15.80
2018-10-18T00:37:40.386Z,15.90
2018-10-18T00:40:10.212Z,16.00
2018-10-18T00:42:38.578Z,16.00
2018-10-18T00:45:07.546Z,16.00
2018-10-18T00:47:35.890Z,16.00
2018-10-18T00:50:04.387Z,16.30
2018-10-18T00:52:32.650Z,16.30
2018-10-18T00:55:00.977Z,16.30
2018-10-18T00:57:29.333Z,16.40
2018-10-18T00:59:57.679Z,16.60
2018-10-18T01:02:25.995Z,16.70
2018-10-18T01:04:54.355Z,16.70
2018-10-18T01:07:22.668Z,16.70
2018-10-18T01:09:50.973Z,16.60
2018-10-18T01:12:19.331Z,16.90
2018-10-18T01:14:47.486Z,17.00
2018-10-18T01:17:15.754Z,17.00
2018-10-18T01:19:44.097Z,17.20
2018-10-18T01:22:12.456Z,17.20
2018-10-18T01:24:40.733Z,17.50
2018-10-18T01:27:09.059Z,17.20
2018-10-18T01:29:37.305Z,17.20
2018-10-18T01:32:06.299Z,16.90
2018-10-18T01:34:34.713Z,16.90
2018-10-18T01:37:03.010Z,16.90
2018-10-18T01:39:31.311Z,16.70
2018-10-18T01:41:59.600Z,16.70
2018-10-18T01:44:28.182Z,16.90
2018-10-18T01:46:56.535Z,17.20
2018-10-18T01:49:24.774Z,17.10
2018-10-18T01:51:53.024Z,17.00
2018-10-18T01:54:21.322Z,17.00
2018-10-18T01:56:49.659Z,17.00
2018-10-18T01:59:17.951Z,17.10
2018-10-18T02:01:46.206Z,17.10
2018-10-18T02:04:14.558Z,17.10
2018-10-18T02:06:42.813Z,17.30
2018-10-18T02:09:11.993Z,17.20
2018-10-18T02:11:40.742Z,17.00
2018-10-18T02:14:09.177Z,17.00
2018-10-18T02:16:37.474Z,17.00
2018-10-18T02:19:05.959Z,17.10
2018-10-18T02:21:34.193Z,17.10
2018-10-18T02:24:02.544Z,17.20
2018-10-18T02:26:30.800Z,17.20
2018-10-18T02:28:59.138Z,17.40
2018-10-18T02:31:27.399Z,17.50
2018-10-18T02:33:55.665Z,17.40
2018-10-18T02:36:23.976Z,17.30
2018-10-18T02:38:52.237Z,15.80
2018-10-18T02:41:20.530Z,17.40
2018-10-18T02:43:48.890Z,17.20
2018-10-18T02:46:17.153Z,17.30
2018-10-18T02:48:45.485Z,17.10
2018-10-18T02:51:13.814Z,17.20
2018-10-18T02:53:42.050Z,17.00
2018-10-18T02:56:10.291Z,17.30
2018-10-18T02:58:38.549Z,17.30
2018-10-18T03:01:06.811Z,17.40
2018-10-18T03:03:35.088Z,17.60
2018-10-18T03:06:03.407Z,17.70
2018-10-18T03:08:31.643Z,17.60
2018-10-18T03:11:00.087Z,17.50
2018-10-18T03:13:28.417Z,17.60
2018-10-18T03:15:56.740Z,17.70
2018-10-18T03:18:25.074Z,17.90
2018-10-18T03:20:53.335Z,18.00
2018-10-18T03:23:21.591Z,18.00
2018-10-18T03:25:49.926Z,17.90
2018-10-18T03:28:18.154Z,17.90
2018-10-18T03:30:46.439Z,18.00
2018-10-18T03:33:14.681Z,18.00
2018-10-18T03:35:42.958Z,18.10
2018-10-18T03:38:11.257Z,18.10
2018-10-18T03:40:39.556Z,17.80
2018-10-18T03:43:07.833Z,17.90
2018-10-18T03:45:36.113Z,18.00
2018-10-18T03:48:04.600Z,18.10
2018-10-18T03:50:33.110Z,17.90
2018-10-18T03:53:01.430Z,18.20
2018-10-18T03:55:29.760Z,18.10
2018-10-18T03:57:58.034Z,17.90
2018-10-18T04:00:26.278Z,18.00
2018-10-18T04:02:54.541Z,18.00
2018-10-18T04:05:22.873Z,17.80
2018-10-18T04:07:51.094Z,17.80
2018-10-18T04:10:19.335Z,17.90
2018-10-18T04:12:47.687Z,18.10
2018-10-18T04:15:15.967Z,18.10
2018-10-18T04:17:44.251Z,18.00
2018-10-18T04:20:12.458Z,17.80
2018-10-18T04:22:40.802Z,18.10
2018-10-18T04:25:09.118Z,17.80
2018-10-18T04:27:37.461Z,17.60
2018-10-18T04:30:06.361Z,17.80
2018-10-18T04:32:34.614Z,17.90
2018-10-18T04:35:02.897Z,17.90
2018-10-18T04:37:31.392Z,18.00
2018-10-18T04:39:59.774Z,17.90
2018-10-18T04:42:28.100Z,17.90
2018-10-18T04:44:56.348Z,17.90
2018-10-18T04:47:24.666Z,17.90
2018-10-18T04:49:52.835Z,18.00
2018-10-18T04:52:21.264Z,18.00
2018-10-18T04:54:49.487Z,17.90
2018-10-18T04:57:17.777Z,18.00
2018-10-18T04:59:46.049Z,17.70
2018-10-18T05:02:14.379Z,17.70
2018-10-18T05:04:52.986Z,17.70
2018-10-18T05:07:23.433Z,17.70
2018-10-18T05:09:51.786Z,17.80
2018-10-18T05:12:20.104Z,18.10
2018-10-18T05:14:48.392Z,18.00
2018-10-18T05:17:16.844Z,18.00
2018-10-18T05:19:45.133Z,17.80
2018-10-18T05:22:13.642Z,17.70
2018-10-18T05:24:41.886Z,17.70
2018-10-18T05:27:10.145Z,17.80
2018-10-18T05:29:38.428Z,17.60
2018-10-18T05:32:06.901Z,17.50
2018-10-18T05:34:35.347Z,17.60
2018-10-18T05:37:03.811Z,17.60
2018-10-18T05:39:32.097Z,17.40
2018-10-18T05:42:00.418Z,17.30
2018-10-18T05:44:28.686Z,17.40
2018-10-18T05:46:57.022Z,17.30
2018-10-18T05:49:26.213Z,17.30
2018-10-18T05:51:54.485Z,17.20
2018-10-18T05:54:23.107Z,17.10
2018-10-18T05:56:51.444Z,17.00
2018-10-18T05:59:19.726Z,17.10
2018-10-18T06:01:48.210Z,17.00
2018-10-18T06:04:16.517Z,17.00
2018-10-18T06:06:44.746Z,16.90
2018-10-18T06:09:17.043Z,17.00
2018-10-18T06:11:46.109Z,17.00
2018-10-18T06:14:14.414Z,16.80
2018-10-18T06:16:42.626Z,16.80
2018-10-18T06:19:11.250Z,16.50
2018-10-18T06:21:39.495Z,16.50
2018-10-18T06:24:07.735Z,16.40
2018-10-18T06:26:35.953Z,16.50
2018-10-18T06:29:04.334Z,16.60
2018-10-18T06:31:32.565Z,16.40
2018-10-18T06:34:00.821Z,16.30
2018-10-18T06:36:29.116Z,16.50
2018-10-18T06:38:57.434Z,16.50
2018-10-18T06:41:25.696Z,16.30
2018-10-18T06:43:53.948Z,16.30
2018-10-18T06:46:22.237Z,16.30
2018-10-18T06:48:50.547Z,16.30
2018-10-18T06:51:18.761Z,16.40
2018-10-18T06:53:47.093Z,16.50
2018-10-18T06:56:15.354Z,16.60
2018-10-18T06:58:43.662Z,16.60
2018-10-18T07:01:11.991Z,16.30
2018-10-18T07:03:40.262Z,16.60
2018-10-18T07:06:08.516Z,16.70
2018-10-18T07:08:36.795Z,16.40
2018-10-18T07:11:05.432Z,16.30
2018-10-18T07:13:33.675Z,16.40
2018-10-18T07:16:01.955Z,16.30
2018-10-18T07:18:30.172Z,16.40
2018-10-18T07:20:58.534Z,16.70
2018-10-18T07:23:26.799Z,16.60
2018-10-18T07:25:55.176Z,16.70
2018-10-18T07:28:23.502Z,16.90
2018-10-18T07:30:51.813Z,17.00
2018-10-18T07:33:20.109Z,16.80
2018-10-18T07:35:48.426Z,16.60
2018-10-18T07:38:16.718Z,16.70
2018-10-18T07:40:45.540Z,17.00
2018-10-18T07:43:14.663Z,17.30
2018-10-18T07:45:43.152Z,17.50
2018-10-18T07:48:11.447Z,17.40
2018-10-18T07:50:39.729Z,17.50
2018-10-18T07:53:08.033Z,17.60
2018-10-18T07:55:36.258Z,17.50
2018-10-18T07:58:04.754Z,17.90
2018-10-18T08:00:33.107Z,17.70
2018-10-18T08:03:01.387Z,17.80
2018-10-18T08:05:30.115Z,17.80
2018-10-18T08:07:58.530Z,17.90
2018-10-18T08:10:26.890Z,18.30
2018-10-18T08:12:55.282Z,18.50
2018-10-18T08:15:23.506Z,19.00
2018-10-18T08:17:51.802Z,19.00
2018-10-18T08:20:20.066Z,19.20
2018-10-18T08:22:48.318Z,19.20
2018-10-18T08:25:16.698Z,19.10
2018-10-18T08:27:44.891Z,19.00
2018-10-18T08:30:13.953Z,19.10
2018-10-18T08:32:42.272Z,19.40
2018-10-18T08:35:11.675Z,19.70
2018-10-18T08:37:40.015Z,19.70
2018-10-18T08:40:08.325Z,20.00
2018-10-18T08:42:36.657Z,20.20
2018-10-18T08:45:06.003Z,19.90
2018-10-18T08:47:34.301Z,19.60
2018-10-18T08:50:02.657Z,19.30
2018-10-18T08:52:30.937Z,19.40
2018-10-18T08:54:59.288Z,19.40
2018-10-18T08:57:27.530Z,19.10
2018-10-18T08:59:55.921Z,18.90
2018-10-18T09:02:24.320Z,19.10
2018-10-18T09:04:52.614Z,19.30
2018-10-18T09:07:20.927Z,19.20
2018-10-18T09:09:49.203Z,19.10
2018-10-18T09:12:18.417Z,19.00
2018-10-18T09:14:46.728Z,18.90
2018-10-18T09:17:14.986Z,18.80
2018-10-18T09:19:43.257Z,18.80
2018-10-18T09:22:11.518Z,19.10
2018-10-18T09:24:39.818Z,19.80
2018-10-18T09:27:08.057Z,20.20
2018-10-18T09:29:36.338Z,20.80
2018-10-18T09:32:04.926Z,20.90
2018-10-18T09:34:33.495Z,21.10
2018-10-18T09:37:01.768Z,21.10
2018-10-18T09:39:30.025Z,21.40
2018-10-18T09:41:58.341Z,21.90
2018-10-18T09:44:26.712Z,22.00
2018-10-18T09:46:55.047Z,22.00
2018-10-18T09:49:24.299Z,22.20
2018-10-18T09:51:52.623Z,22.40
2018-10-18T09:54:21.107Z,22.40
2018-10-18T09:56:49.379Z,22.60
2018-10-18T09:59:17.677Z,23.10
2018-10-18T10:02:50.750Z,22.90
2018-10-18T10:05:20.102Z,23.10
2018-10-18T10:07:48.331Z,23.00
2018-10-18T10:10:16.601Z,23.20
2018-10-18T10:12:44.860Z,23.30
2018-10-18T10:15:13.216Z,23.80
2018-10-18T10:17:41.671Z,23.70
2018-10-18T10:20:09.865Z,23.70
2018-10-18T10:22:38.101Z,23.40
2018-10-18T10:25:06.601Z,23.10
2018-10-18T10:27:34.850Z,22.60
2018-10-18T10:30:03.221Z,22.80
2018-10-18T10:32:31.494Z,22.70
2018-10-18T10:34:59.818Z,22.70
2018-10-18T10:37:28.068Z,22.90
2018-10-18T10:39:56.448Z,22.70
2018-10-18T10:42:24.625Z,21.80
2018-10-18T10:44:52.903Z,21.80
2018-10-18T10:47:21.185Z,21.50
2018-10-18T10:49:49.465Z,21.20
2018-10-18T10:52:17.826Z,21.30
2018-10-18T10:54:46.006Z,21.40
2018-10-18T10:57:14.370Z,21.20
2018-10-18T10:59:42.582Z,20.70
2018-10-18T11:02:10.980Z,20.60
2018-10-18T11:04:39.269Z,20.40
2018-10-18T11:07:07.498Z,20.70
2018-10-18T11:09:35.822Z,20.60
2018-10-18T11:12:04.315Z,20.20
2018-10-18T11:14:32.515Z,20.10
2018-10-18T11:17:00.868Z,20.40
2018-10-18T11:19:29.123Z,20.60
2018-10-18T11:21:57.361Z,20.40
2018-10-18T11:24:25.647Z,20.30
2018-10-18T11:26:54.026Z,20.60
2018-10-18T11:29:22.302Z,20.80
2018-10-18T11:31:50.550Z,21.30
2018-10-18T11:34:18.865Z,21.50
2018-10-18T11:36:47.271Z,22.20
2018-10-18T11:39:15.492Z,22.20
2018-10-18T11:41:43.815Z,21.80
2018-10-18T11:44:13.020Z,21.10
2018-10-18T11:46:41.338Z,21.30
2018-10-18T11:49:09.618Z,21.50
2018-10-18T11:51:38.009Z,21.20
2018-10-18T11:54:06.482Z,21.00
2018-10-18T11:56:34.653Z,20.90
2018-10-18T11:59:03.462Z,20.50
2018-10-18T12:01:31.799Z,20.80
2018-10-18T12:04:00.078Z,20.90
2018-10-18T12:06:28.448Z,20.50
2018-10-18T12:08:56.728Z,20.60
2018-10-18T12:11:24.977Z,20.40
2018-10-18T12:13:53.219Z,20.00
2018-10-18T12:16:21.540Z,19.70
2018-10-18T12:18:49.893Z,19.90
2018-10-18T12:21:18.224Z,20.40
2018-10-18T12:23:46.536Z,20.40
2018-10-18T12:26:14.848Z,20.60
2018-10-18T12:28:43.085Z,20.50
2018-10-18T12:31:12.114Z,20.90
2018-10-18T12:33:40.378Z,20.50
2018-10-18T12:36:08.693Z,19.50
2018-10-18T12:38:37.096Z,19.60
2018-10-18T12:41:05.647Z,19.70
2018-10-18T12:43:33.822Z,19.90
2018-10-18T12:46:02.132Z,20.30
2018-10-18T12:48:30.498Z,20.30
2018-10-18T12:53:40.770Z,19.60
2018-10-18T12:56:09.131Z,19.70
2018-10-18T12:58:37.966Z,19.60
2018-10-18T13:01:06.340Z,19.60
2018-10-18T13:03:34.773Z,19.30
2018-10-18T13:06:03.059Z,19.60
2018-10-18T13:08:31.276Z,19.50
2018-10-18T13:10:59.571Z,19.20
2018-10-18T13:13:27.826Z,19.50
2018-10-18T13:15:56.200Z,20.00
2018-10-18T13:18:24.551Z,20.00
2018-10-18T13:20:52.853Z,20.00
2018-10-18T13:23:21.249Z,19.70
2018-10-18T13:25:49.518Z,19.50
2018-10-18T13:28:17.826Z,19.20
2018-10-18T13:30:46.219Z,19.40
2018-10-18T13:33:14.494Z,19.00
2018-10-18T13:35:42.807Z,19.20
2018-10-18T13:38:11.182Z,19.60
2018-10-18T13:40:39.466Z,19.50
2018-10-18T13:43:11.089Z,19.60
2018-10-18T13:45:39.389Z,19.40
2018-10-18T13:48:07.710Z,19.50
2018-10-18T13:50:36.085Z,19.40
2018-10-18T13:53:04.401Z,19.30
2018-10-18T13:55:32.719Z,18.80
2018-10-18T13:58:01.366Z,18.90
2018-10-18T14:00:30.673Z,18.80
2018-10-18T14:02:58.956Z,18.70
2018-10-18T14:05:27.816Z,18.90
2018-10-18T14:07:56.517Z,19.00
2018-10-18T14:10:24.905Z,18.80
2018-10-18T14:12:53.692Z,18.50
2018-10-18T14:15:22.078Z,18.20
2018-10-18T14:17:50.458Z,18.50
2018-10-18T14:20:18.824Z,18.80
2018-10-18T14:22:47.012Z,18.90
2018-10-18T14:25:15.225Z,19.00
2018-10-18T14:27:43.607Z,19.20
2018-10-18T14:30:13.147Z,19.10
2018-10-18T14:32:41.325Z,19.00
2018-10-18T14:35:10.911Z,19.00
2018-10-18T14:37:39.186Z,18.80
2018-10-18T14:40:08.834Z,18.60
2018-10-18T14:42:37.120Z,18.80
2018-10-18T14:45:06.888Z,19.00
2018-10-18T14:47:35.128Z,19.00
2018-10-18T14:50:03.496Z,18.80
2018-10-18T14:52:31.865Z,18.60
2018-10-18T14:55:00.301Z,19.20
2018-10-18T14:57:28.592Z,19.30
2018-10-18T14:59:57.284Z,19.20
2018-10-18T15:02:25.569Z,19.20
2018-10-18T15:04:53.815Z,19.00
2018-10-18T15:07:22.170Z,18.90
2018-10-18T15:09:50.526Z,18.90
2018-10-18T15:12:19.231Z,18.90
2018-10-18T15:14:47.573Z,18.90
2018-10-18T15:17:16.003Z,19.10
2018-10-18T15:19:44.232Z,19.30
2018-10-18T15:22:12.457Z,19.00
2018-10-18T15:24:40.896Z,19.00
2018-10-18T15:27:09.290Z,18.90
2018-10-18T15:29:37.487Z,19.20
2018-10-18T15:32:05.890Z,19.00
2018-10-18T15:34:34.203Z,18.80
2018-10-18T15:37:02.530Z,18.90
2018-10-18T15:39:30.996Z,18.70
2018-10-18T15:41:59.194Z,19.10
2018-10-18T15:44:27.527Z,19.10
2018-10-18T15:46:56.238Z,18.80
2018-10-18T15:49:24.494Z,18.80
2018-10-18T15:51:52.807Z,18.80
2018-10-18T15:54:21.208Z,18.70
2018-10-18T15:56:49.530Z,18.70
2018-10-18T15:59:17.890Z,18.60
2018-10-18T16:01:46.546Z,18.30
2018-10-18T16:04:14.841Z,18.10
2018-10-18T16:06:43.103Z,18.10
2018-10-18T16:09:12.989Z,18.20
2018-10-18T16:11:41.472Z,18.20
2018-10-18T16:14:09.905Z,18.40
2018-10-18T16:16:38.271Z,18.30
2018-10-18T16:19:06.582Z,18.30
2018-10-18T16:21:34.974Z,18.30
2018-10-18T16:24:03.550Z,18.30
2018-10-18T16:26:31.908Z,18.00
2018-10-18T16:29:00.418Z,18.20
2018-10-18T16:31:28.928Z,18.10
2018-10-18T16:33:57.363Z,18.10
2018-10-18T16:36:25.601Z,18.30
2018-10-18T16:38:53.991Z,18.20
2018-10-18T16:41:22.678Z,18.20
2018-10-18T16:43:50.851Z,18.30
2018-10-18T16:46:19.228Z,18.10
2018-10-18T16:48:47.581Z,18.10
2018-10-18T16:51:15.890Z,17.90
2018-10-18T16:53:44.250Z,17.50
2018-10-18T16:56:12.628Z,17.50
2018-10-18T16:58:41.066Z,17.40
2018-10-18T17:01:09.714Z,17.50
2018-10-18T17:03:38.063Z,17.60
2018-10-18T17:06:06.368Z,17.60
2018-10-18T17:08:34.707Z,17.60
2018-10-18T17:11:03.253Z,17.40
2018-10-18T17:13:31.858Z,17.50
2018-10-18T17:16:00.165Z,17.40
2018-10-18T17:18:28.776Z,17.40
2018-10-18T17:20:57.176Z,17.50
2018-10-18T17:23:25.533Z,17.70
2018-10-18T17:25:53.700Z,17.60
2018-10-18T17:28:21.975Z,17.40
2018-10-18T17:30:50.536Z,17.40
2018-10-18T17:33:18.885Z,17.40
2018-10-18T17:35:47.134Z,17.40
2018-10-18T17:38:15.576Z,17.50
2018-10-18T17:40:43.902Z,17.40
2018-10-18T17:43:12.165Z,17.40
2018-10-18T17:45:40.410Z,17.60
2018-10-18T17:48:08.802Z,17.60
2018-10-18T17:50:37.040Z,17.60
2018-10-18T17:53:05.502Z,17.20
2018-10-18T17:55:33.752Z,17.10
2018-10-18T17:58:02.135Z,16.90
2018-10-18T18:00:30.586Z,16.80
2018-10-18T18:02:58.757Z,16.80
2018-10-18T18:05:27.048Z,16.80
2018-10-18T18:07:55.351Z,17.00
2018-10-18T18:10:23.576Z,16.90
2018-10-18T18:12:51.842Z,16.90
2018-10-18T18:15:20.107Z,16.90
2018-10-18T18:17:48.384Z,16.80
2018-10-18T18:20:16.688Z,16.80
2018-10-18T18:22:45.152Z,16.80
2018-10-18T18:25:14.092Z,16.80
2018-10-18T18:27:42.514Z,16.70
2018-10-18T18:30:14.301Z,16.50
2018-10-18T18:32:42.907Z,16.50
2018-10-18T18:35:11.215Z,16.60
2018-10-18T18:37:39.534Z,16.50
2018-10-18T18:40:08.999Z,16.60
2018-10-18T18:42:37.549Z,16.70
2018-10-18T18:45:11.250Z,16.40
2018-10-18T18:47:39.479Z,16.50
2018-10-18T18:50:08.954Z,16.40
2018-10-18T18:52:37.378Z,16.50
2018-10-18T18:55:06.666Z,16.60
2018-10-18T18:57:35.046Z,16.60
2018-10-18T19:00:03.380Z,16.60
2018-10-18T19:02:31.600Z,16.50
2018-10-18T19:04:59.971Z,16.60
2018-10-18T19:07:28.367Z,16.50
2018-10-18T19:09:56.734Z,16.50
2018-10-18T19:12:25.209Z,16.50
2018-10-18T19:14:53.510Z,16.50
2018-10-18T19:17:21.870Z,16.40
2018-10-18T19:19:50.138Z,16.50
2018-10-18T19:22:18.405Z,16.40
2018-10-18T19:24:46.709Z,16.60
2018-10-18T19:27:14.990Z,16.60
2018-10-18T19:29:43.342Z,16.50
2018-10-18T19:32:11.799Z,16.60
2018-10-18T19:34:40.017Z,16.50
2018-10-18T19:37:08.420Z,16.60
2018-10-18T19:39:36.746Z,16.70
2018-10-18T19:42:05.270Z,16.60
2018-10-18T19:44:33.506Z,16.60
2018-10-18T19:47:01.786Z,16.40
2018-10-18T19:49:30.046Z,16.50
2018-10-18T19:51:58.405Z,16.50
2018-10-18T19:54:26.645Z,16.50
2018-10-18T19:56:54.966Z,16.60
2018-10-18T19:59:23.246Z,16.70
2018-10-18T20:01:51.646Z,16.70
2018-10-18T20:04:19.986Z,16.70
2018-10-18T20:06:48.322Z,16.70
2018-10-18T20:09:16.606Z,16.60
2018-10-18T20:11:46.357Z,16.60
2018-10-18T20:14:14.802Z,16.70
2018-10-18T20:16:43.203Z,16.60
2018-10-18T20:19:11.566Z,16.60
2018-10-18T20:21:39.813Z,16.50
2018-10-18T20:24:08.923Z,16.50
2018-10-18T20:26:37.253Z,16.60
2018-10-18T20:29:05.801Z,16.50
2018-10-18T20:31:34.687Z,16.50
2018-10-18T20:34:02.948Z,16.30
2018-10-18T20:36:31.374Z,16.20
2018-10-18T20:38:59.800Z,16.10
2018-10-18T20:41:28.611Z,16.10
2018-10-18T20:43:57.274Z,15.90
2018-10-18T20:46:25.587Z,16.00
2018-10-18T20:48:54.020Z,15.90
2018-10-18T20:51:22.292Z,15.80
2018-10-18T20:53:50.571Z,15.90
2018-10-18T20:56:18.900Z,15.70
2018-10-18T20:58:47.310Z,15.50
2018-10-18T21:01:15.515Z,15.50
2018-10-18T21:03:43.827Z,15.40
2018-10-18T21:06:12.141Z,15.30
2018-10-18T21:08:40.382Z,15.40
2018-10-18T21:11:08.664Z,15.50
2018-10-18T21:13:36.877Z,15.50
2018-10-18T21:16:05.827Z,15.60
2018-10-18T21:18:34.055Z,15.50
2018-10-18T21:21:02.526Z,15.50
2018-10-18T21:23:30.769Z,15.30
2018-10-18T21:25:59.294Z,15.20
2018-10-18T21:28:27.574Z,15.20
2018-10-18T21:30:55.833Z,15.10
2018-10-18T21:33:24.163Z,15.10
2018-10-18T21:35:52.426Z,14.90
2018-10-18T21:38:20.750Z,14.80
2018-10-18T21:40:49.033Z,14.60
2018-10-18T21:43:17.325Z,14.30
2018-10-18T21:45:45.579Z,14.50
2018-10-18T21:48:13.864Z,14.60
2018-10-18T21:50:42.412Z,14.50
2018-10-18T21:55:38.832Z,14.80
2018-10-18T21:58:07.131Z,15.00
2018-10-18T22:00:45.802Z,14.80
2018-10-18T22:03:15.322Z,14.60
2018-10-18T22:05:44.534Z,14.50
2018-10-18T22:08:13.024Z,14.70
2018-10-18T22:10:41.616Z,14.50
2018-10-18T22:13:09.902Z,14.40
2018-10-18T22:15:38.413Z,14.60
2018-10-18T22:18:06.728Z,14.60
2018-10-18T22:20:34.965Z,14.60
2018-10-18T22:23:03.403Z,14.50
2018-10-18T22:25:31.723Z,14.30
2018-10-18T22:30:28.068Z,14.00
2018-10-18T22:35:24.282Z,14.20
2018-10-18T22:37:52.528Z,14.30
2018-10-18T22:40:20.750Z,14.20
2018-10-18T22:42:49.055Z,14.30
2018-10-18T22:47:45.338Z,14.30
2018-10-18T22:50:13.566Z,14.30
2018-10-18T22:52:41.829Z,14.30
2018-10-18T22:55:10.055Z,14.10
2018-10-18T22:57:38.349Z,14.10
2018-10-18T23:00:07.354Z,14.10
2018-10-18T23:02:35.702Z,14.00
2018-10-18T23:05:04.052Z,13.90
2018-10-18T23:07:32.283Z,13.80
2018-10-18T23:10:00.575Z,13.70
2018-10-18T23:12:28.910Z,13.70
2018-10-18T23:14:57.312Z,13.90
2018-10-18T23:17:25.562Z,14.10
2018-10-18T23:19:53.937Z,14.00
2018-10-18T23:22:22.171Z,13.90
2018-10-18T23:24:51.135Z,13.80
2018-10-18T23:27:18.651Z,14.00
2018-10-18T23:29:46.946Z,14.00
2018-10-18T23:32:15.325Z,14.00
2018-10-18T23:34:43.615Z,14.10
2018-10-18T23:37:11.956Z,14.00
2018-10-18T23:39:40.262Z,14.00
2018-10-18T23:42:08.638Z,14.10
2018-10-18T23:44:36.904Z,14.20
2018-10-18T23:47:06.301Z,14.10
2018-10-18T23:49:34.637Z,13.90
2018-10-18T23:52:02.910Z,13.90
2018-10-18T23:54:31.244Z,14.00
2018-10-18T23:56:59.554Z,14.10
2018-10-18T23:59:27.858Z,14.00
